Time;durP1;ratioP1;P1;durP2;ratioP2;P2;SDS_P1;SDS_P2;PMS_P1;PMS_P2;Temp;Humidity;BMP_temperature;BMP_pressure;BME280_temperature;BME280_humidity;BME280_pressure;Samples;Min_cycle;Max_cycle;Signal;HPM_P1;HPM_P2
2020/12/18 00:01:20;;;;;;;7.47;6.87;;;;;;;3.38;91.84;96384.28;6029500;23;20761;-70
2020/12/18 00:03:47;;;;;;;7.77;7.17;;;;;;;3.36;91.98;96379.19;6029529;23;20263;-71
2020/12/18 00:06:15;;;;;;;8.40;7.57;;;;;;;3.36;92.16;96383.59;6029863;23;20264;-71
2020/12/18 00:08:42;;;;;;;8.03;7.33;;;;;;;3.43;92.57;96387.38;6029873;23;20209;-71
2020/12/18 00:11:09;;;;;;;8.83;8.03;;;;;;;3.41;92.53;96386.69;6027269;23;20550;-71
2020/12/18 00:13:36;;;;;;;9.07;8.37;;;;;;;3.37;92.30;96386.06;6027831;23;20205;-71
2020/12/18 00:16:04;;;;;;;7.70;7.10;;;;;;;3.39;92.36;96393.81;6029571;23;20684;-71
2020/12/18 00:18:31;;;;;;;8.20;7.47;;;;;;;3.37;92.56;96390.47;6028857;23;20204;-71
2020/12/18 00:20:58;;;;;;;7.73;7.03;;;;;;;3.37;92.18;96395.69;6029537;23;20203;-70
2020/12/18 00:23:24;;;;;;;7.03;6.43;;;;;;;3.40;92.92;96385.84;6027739;23;20208;-71
2020/12/18 00:25:52;;;;;;;8.47;7.77;;;;;;;3.43;92.86;96384.75;6029400;23;20208;-71
2020/12/18 00:28:19;;;;;;;7.40;6.77;;;;;;;3.43;92.59;96384.75;6029178;23;20271;-71
2020/12/18 00:30:47;;;;;;;8.33;7.60;;;;;;;3.43;92.47;96376.94;6027922;23;20818;-71
2020/12/18 00:33:14;;;;;;;7.33;6.73;;;;;;;3.48;92.83;96377.41;6050791;23;20211;-71
2020/12/18 00:35:41;;;;;;;6.63;6.17;;;;;;;3.49;92.73;96383.47;6028791;23;20217;-70
2020/12/18 00:38:08;;;;;;;9.57;8.77;;;;;;;3.53;92.97;96390.91;6027117;23;20826;-71
2020/12/18 00:40:35;;;;;;;6.50;6.00;;;;;;;3.59;92.39;96380.00;6026217;23;20205;-70
2020/12/18 00:43:02;;;;;;;9.03;8.13;;;;;;;3.59;91.88;96379.16;6028693;23;20275;-70
2020/12/18 00:45:29;;;;;;;9.33;8.37;;;;;;;3.52;91.23;96376.19;6029950;23;20870;-71
2020/12/18 00:47:56;;;;;;;9.53;8.73;;;;;;;3.53;91.74;96375.25;6029356;23;20577;-70
2020/12/18 00:50:24;;;;;;;8.60;7.90;;;;;;;3.51;91.45;96377.16;6029979;23;20713;-71
2020/12/18 00:52:50;;;;;;;9.30;8.40;;;;;;;3.49;92.33;96379.06;6029641;23;20232;-71
2020/12/18 00:55:17;;;;;;;7.60;7.00;;;;;;;3.55;91.89;96383.78;6030000;23;20204;-71
2020/12/18 00:57:44;;;;;;;7.13;6.53;;;;;;;3.48;91.93;96371.38;6028996;23;20203;-71
2020/12/18 01:00:13;;;;;;;8.17;7.47;;;;;;;3.44;92.23;96375.97;6031166;23;20211;-71
2020/12/18 01:03:02;;;;;;;6.83;6.37;;;;;;;3.44;92.36;96378.59;6028978;23;20220;-71
2020/12/18 01:05:30;;;;;;;9.43;7.67;;;;;;;3.40;92.87;96379.81;6028904;23;20693;-71
2020/12/18 01:07:57;;;;;;;7.93;7.13;;;;;;;3.39;92.95;96375.53;6029521;23;20244;-70
2020/12/18 01:10:25;;;;;;;6.90;6.30;;;;;;;3.33;92.66;96373.41;6029147;23;20258;-71
2020/12/18 01:12:52;;;;;;;7.43;6.73;;;;;;;3.31;93.02;96370.09;6030105;23;20619;-70
2020/12/18 01:15:23;;;;;;;5.83;5.33;;;;;;;3.28;92.56;96376.38;6028437;23;20227;-70
2020/12/18 01:17:50;;;;;;;7.83;7.13;;;;;;;3.24;93.04;96381.97;6027536;23;20547;-70
2020/12/18 01:20:17;;;;;;;7.37;6.70;;;;;;;3.23;92.57;96382.91;6029616;23;20240;-71
2020/12/18 01:22:46;;;;;;;7.10;6.50;;;;;;;3.19;93.04;96386.69;6028638;23;20365;-70
2020/12/18 01:25:15;;;;;;;7.83;7.23;;;;;;;3.16;93.24;96377.34;6031482;23;20202;-72
2020/12/18 01:27:45;;;;;;;6.00;5.60;;;;;;;3.13;92.86;96386.25;6028594;23;20207;-71
2020/12/18 01:30:12;;;;;;;7.17;6.70;;;;;;;3.09;93.44;96382.19;6028261;23;20204;-71
2020/12/18 01:32:44;;;;;;;6.67;6.17;;;;;;;3.08;93.67;96370.13;6029461;23;20231;-71
2020/12/18 01:35:11;;;;;;;7.43;6.83;;;;;;;3.22;93.04;96370.81;6029586;23;20236;-71
2020/12/18 01:37:52;;;;;;;9.77;8.87;;;;;;;3.17;92.80;96375.56;6029179;23;20237;-70
2020/12/18 01:40:22;;;;;;;10.10;9.10;;;;;;;3.08;92.84;96380.53;6028399;23;20229;-71
2020/12/18 01:42:49;;;;;;;7.83;6.43;;;;;;;3.01;92.80;96379.34;6028231;23;20210;-71
2020/12/18 01:45:16;;;;;;;7.77;7.17;;;;;;;2.99;92.91;96375.22;6029744;23;20204;-71
2020/12/18 01:48:04;;;;;;;10.70;9.80;;;;;;;2.95;93.11;96374.66;6030162;23;20286;-71
2020/12/18 01:50:38;;;;;;;7.20;6.60;;;;;;;2.93;93.39;96381.75;6029096;23;20205;-71
2020/12/18 01:53:07;;;;;;;7.47;6.87;;;;;;;2.91;93.56;96378.41;6030787;23;20250;-71
2020/12/18 01:55:56;;;;;;;11.27;9.37;;;;;;;3.01;94.01;96384.56;6030068;23;20688;-71
2020/12/18 01:58:23;;;;;;;10.83;9.83;;;;;;;3.03;94.08;96377.50;6029203;23;20207;-71
2020/12/18 02:00:51;;;;;;;9.07;8.27;;;;;;;3.02;93.58;96377.63;6027787;23;20208;-71
2020/12/18 02:03:29;;;;;;;9.87;9.03;;;;;;;3.00;93.85;96382.09;6027348;23;20211;-70
2020/12/18 02:06:18;;;;;;;9.50;8.60;;;;;;;3.04;93.71;96380.91;6028888;23;20217;-70
2020/12/18 02:09:13;;;;;;;9.73;8.23;;;;;;;3.03;94.13;96395.75;6027524;23;20942;-71
2020/12/18 02:11:44;;;;;;;8.97;8.00;;;;;;;3.04;93.67;96391.34;6026826;23;20204;-70
2020/12/18 02:14:15;;;;;;;9.73;8.87;;;;;;;2.98;93.56;96392.66;6027104;23;20211;-71
2020/12/18 02:16:48;;;;;;;7.73;7.03;;;;;;;2.96;93.03;96391.94;6026951;23;20208;-71
2020/12/18 02:19:26;;;;;;;9.13;8.20;;;;;;;2.94;92.56;96383.41;6026660;23;20227;-70
2020/12/18 02:22:15;;;;;;;8.97;8.23;;;;;;;2.92;92.75;96390.50;6026820;23;20240;-71
2020/12/18 02:24:52;;;;;;;7.97;7.37;;;;;;;2.93;93.23;96386.16;6027584;23;20278;-70
2020/12/18 02:27:20;;;;;;;8.60;7.90;;;;;;;2.94;93.61;96386.03;6027321;23;20215;-70
2020/12/18 02:29:56;;;;;;;9.70;8.90;;;;;;;2.95;93.70;96385.06;6025188;23;20214;-70
2020/12/18 02:32:23;;;;;;;8.90;8.10;;;;;;;2.95;93.92;96377.25;6027517;23;20250;-70
2020/12/18 02:35:02;;;;;;;11.00;9.10;;;;;;;2.96;93.73;96376.31;6027152;23;20235;-70
2020/12/18 02:37:34;;;;;;;10.17;9.37;;;;;;;2.99;93.40;96368.22;6027655;23;20233;-70
2020/12/18 02:40:04;;;;;;;9.77;8.87;;;;;;;2.99;94.19;96364.78;6025983;23;20265;-70
2020/12/18 02:43:01;;;;;;;10.67;9.70;;;;;;;2.99;93.50;96359.56;6028515;23;20555;-70
2020/12/18 02:45:29;;;;;;;9.63;8.83;;;;;;;3.12;94.05;96350.69;6027426;23;20578;-70
2020/12/18 02:48:12;;;;;;;11.23;10.27;;;;;;;3.16;93.13;96350.44;6026562;23;20211;-70
2020/12/18 02:50:46;;;;;;;10.80;9.90;;;;;;;3.11;93.00;96353.41;6027342;23;20285;-70
2020/12/18 02:53:14;;;;;;;8.63;7.80;;;;;;;3.07;93.60;96358.03;6028832;23;20203;-71
2020/12/18 02:56:23;;;;;;;9.30;8.60;;;;;;;3.05;93.18;96353.91;5943236;24;623200;-70
2020/12/18 02:59:10;;;;;;;13.00;10.90;;;;;;;3.00;92.62;96362.06;6024001;23;20207;-71
2020/12/18 03:01:37;;;;;;;8.60;8.00;;;;;;;2.96;92.91;96363.25;6027919;23;20207;-70
2020/12/18 03:04:05;;;;;;;10.70;9.67;;;;;;;2.87;92.74;96368.38;6026978;23;20214;-70
2020/12/18 03:06:41;;;;;;;10.37;8.13;;;;;;;2.94;93.32;96367.78;6028429;23;20545;-70
2020/12/18 03:09:10;;;;;;;10.27;9.00;;;;;;;2.94;93.14;96370.38;6028321;23;20266;-70
2020/12/18 03:11:37;;;;;;;8.47;7.83;;;;;;;2.91;93.44;96378.41;6028349;23;20658;-70
2020/12/18 03:14:04;;;;;;;8.53;7.83;;;;;;;2.94;93.31;96377.38;6028479;23;20859;-70
2020/12/18 03:16:38;;;;;;;8.30;7.70;;;;;;;2.95;92.67;96384.25;6027336;23;20203;-70
2020/12/18 03:19:16;;;;;;;7.47;6.97;;;;;;;2.91;93.03;96375.81;6027963;23;20218;-71
2020/12/18 03:21:44;;;;;;;10.30;8.67;;;;;;;2.91;93.33;96382.81;6028305;23;20206;-70
2020/12/18 03:24:49;;;;;;;7.93;7.10;;;;;;;2.87;92.99;96381.41;5969336;24;20665;-71
2020/12/18 03:27:36;;;;;;;6.27;5.77;;;;;;;2.87;93.00;96382.22;5945872;24;20212;-70
2020/12/18 03:30:07;;;;;;;8.70;8.00;;;;;;;2.89;92.96;96382.94;5995471;23;20233;-71
2020/12/18 03:32:36;;;;;;;7.57;6.90;;;;;;;2.93;92.98;96384.38;6027641;23;20422;-70
2020/12/18 03:35:13;;;;;;;8.87;8.07;;;;;;;2.96;93.10;96378.91;6028382;23;20207;-71
2020/12/18 03:37:40;;;;;;;8.70;7.77;;;;;;;2.96;92.35;96380.69;6028442;23;20200;-70
2020/12/18 03:40:11;;;;;;;9.13;7.43;;;;;;;2.96;92.83;96378.06;6027077;23;20204;-70
2020/12/18 03:42:43;;;;;;;10.00;9.00;;;;;;;2.99;92.32;96373.44;6027174;23;20232;-70
2020/12/18 03:45:10;;;;;;;9.40;8.20;;;;;;;3.02;92.54;96372.41;6027975;23;20203;-70
2020/12/18 03:47:53;;;;;;;8.20;7.40;;;;;;;3.00;92.46;96377.72;6027681;23;20207;-70
2020/12/18 03:50:25;;;;;;;7.63;6.93;;;;;;;3.00;93.06;96369.88;6028416;23;20203;-71
2020/12/18 03:53:05;;;;;;;6.93;6.33;;;;;;;3.01;92.37;96378.53;6027304;23;20215;-70
2020/12/18 03:55:34;;;;;;;7.53;6.90;;;;;;;3.00;93.04;96377.72;6028162;23;20207;-71
2020/12/18 03:58:17;;;;;;;8.30;7.53;;;;;;;3.00;92.86;96377.72;6026863;23;20210;-71
2020/12/18 04:01:01;;;;;;;7.00;6.50;;;;;;;2.99;92.71;96386.47;6026757;23;20543;-71
2020/12/18 04:03:29;;;;;;;10.73;8.30;;;;;;;2.99;92.35;96386.47;6027091;23;20224;-71
2020/12/18 04:05:56;;;;;;;8.97;8.20;;;;;;;3.00;92.81;96380.31;6052178;23;20659;-70
2020/12/18 04:08:23;;;;;;;7.80;7.07;;;;;;;3.01;92.79;96384.56;6028000;23;20722;-70
2020/12/18 04:11:13;;;;;;;8.63;7.83;;;;;;;3.04;93.00;96383.53;6050965;23;20243;-70
2020/12/18 04:13:51;;;;;;;9.23;8.27;;;;;;;3.07;93.05;96375.47;6027935;23;20210;-71
2020/12/18 04:16:20;;;;;;;7.60;6.90;;;;;;;3.06;92.60;96382.44;6027183;23;20207;-70
2020/12/18 04:18:49;;;;;;;9.47;8.67;;;;;;;3.08;92.88;96377.09;6027473;23;20195;-70
2020/12/18 04:21:18;;;;;;;8.80;8.07;;;;;;;3.08;92.97;96375.34;6027920;23;20210;-70
2020/12/18 04:24:11;;;;;;;7.13;6.53;;;;;;;3.06;92.37;96374.63;6026134;23;20284;-70
2020/12/18 04:26:41;;;;;;;8.73;7.97;;;;;;;3.05;93.11;96370.38;6027464;23;20216;-70
2020/12/18 04:29:10;;;;;;;8.90;8.20;;;;;;;3.05;92.89;96375.59;6027306;23;20238;-71
2020/12/18 04:31:38;;;;;;;7.13;6.63;;;;;;;3.04;92.44;96373.94;6024194;23;20203;-70
2020/12/18 04:34:07;;;;;;;9.83;9.10;;;;;;;3.03;92.84;96371.44;6025424;23;20280;-70
2020/12/18 04:36:56;;;;;;;8.37;7.63;;;;;;;3.03;92.18;96368.84;6029131;23;20214;-70
2020/12/18 04:39:43;;;;;;;9.43;8.53;;;;;;;3.06;92.78;96361.59;6027442;23;20207;-70
2020/12/18 04:42:10;;;;;;;8.87;8.17;;;;;;;3.04;92.59;96360.88;6025026;23;20232;-71
2020/12/18 04:44:38;;;;;;;9.40;8.50;;;;;;;3.07;92.19;96363.25;6024506;23;20255;-71
2020/12/18 04:47:14;;;;;;;8.43;7.60;;;;;;;3.02;91.97;96359.38;6027106;23;20206;-71
2020/12/18 04:49:42;;;;;;;8.73;7.93;;;;;;;2.99;92.40;96363.00;6027088;23;20202;-70
2020/12/18 04:52:22;;;;;;;7.53;6.90;;;;;;;3.12;91.60;96361.13;6027447;23;20211;-71
2020/12/18 04:54:58;;;;;;;11.03;10.03;;;;;;;3.09;91.42;96363.94;6026378;23;20206;-70
2020/12/18 04:57:46;;;;;;;11.07;7.90;;;;;;;3.00;91.92;96362.06;6028001;23;20203;-69
2020/12/18 05:00:18;;;;;;;8.07;7.30;;;;;;;3.11;91.02;96363.84;6026300;23;20319;-71
2020/12/18 05:03:04;;;;;;;7.13;6.63;;;;;;;3.07;91.42;96357.19;6026076;23;20208;-71
2020/12/18 05:05:33;;;;;;;6.07;5.57;;;;;;;3.01;91.16;96363.72;6027008;23;20202;-70
2020/12/18 05:08:06;;;;;;;6.00;5.37;;;;;;;3.03;91.13;96371.44;6026771;23;20211;-70
2020/12/18 05:10:34;;;;;;;7.63;6.73;;;;;;;2.97;90.65;96370.13;6027479;23;20405;-71
2020/12/18 05:13:05;;;;;;;8.97;6.57;;;;;;;2.90;90.81;96368.94;6026498;23;20203;-70
2020/12/18 05:15:44;;;;;;;5.50;5.00;;;;;;;2.86;91.38;96370.16;6026928;23;20270;-71
2020/12/18 05:18:31;;;;;;;8.10;7.23;;;;;;;2.83;91.89;96375.56;6028458;23;20228;-71
2020/12/18 05:21:03;;;;;;;6.47;5.93;;;;;;;2.81;91.88;96374.88;6027079;23;20532;-71
2020/12/18 05:23:45;;;;;;;6.57;5.97;;;;;;;2.82;91.86;96384.34;6027551;23;20255;-70
2020/12/18 05:26:23;;;;;;;7.37;6.67;;;;;;;2.83;92.32;96386.00;6027136;23;20278;-71
2020/12/18 05:29:03;;;;;;;8.73;6.37;;;;;;;2.83;91.89;96375.56;6026679;23;20218;-70
2020/12/18 05:31:32;;;;;;;9.23;8.43;;;;;;;2.82;91.39;96377.34;6026245;23;20278;-71
2020/12/18 05:34:23;;;;;;;9.77;6.97;;;;;;;2.80;91.36;96386.25;6022333;23;20207;-70
2020/12/18 05:37:01;;;;;;;10.33;8.13;;;;;;;2.78;91.32;96383.75;6029400;23;20211;-71
2020/12/18 05:39:58;;;;;;;7.83;7.23;;;;;;;2.74;91.69;96390.19;6024030;23;20223;-70
2020/12/18 05:42:46;;;;;;;8.17;7.27;;;;;;;2.73;92.25;96390.25;6019242;23;20211;-70
2020/12/18 05:45:18;;;;;;;8.60;6.73;;;;;;;2.75;91.43;96394.44;6028886;23;20245;-71
2020/12/18 05:48:03;;;;;;;8.30;7.50;;;;;;;2.78;92.34;96406.41;6027649;23;20295;-70
2020/12/18 05:50:56;;;;;;;8.40;7.53;;;;;;;2.76;91.81;96406.50;6029129;23;20207;-70
2020/12/18 05:53:26;;;;;;;5.87;5.40;;;;;;;2.78;92.21;96401.19;6028993;23;20215;-71
2020/12/18 05:56:03;;;;;;;6.77;6.17;;;;;;;2.78;91.80;96406.41;6028507;23;20239;-70
2020/12/18 05:58:39;;;;;;;10.60;8.97;;;;;;;2.79;91.46;96393.25;6029788;23;20613;-71
2020/12/18 06:01:30;;;;;;;8.13;7.33;;;;;;;2.87;91.66;96400.47;6029642;23;20203;-70
2020/12/18 06:04:25;;;;;;;13.80;7.97;;;;;;;2.80;91.44;96402.72;6017395;23;20235;-71
2020/12/18 06:06:58;;;;;;;7.57;6.83;;;;;;;2.74;91.79;96402.34;6028154;23;20556;-70
2020/12/18 06:09:50;;;;;;;10.20;8.40;;;;;;;2.71;91.19;96415.63;6029322;23;20199;-71
2020/12/18 06:12:21;;;;;;;7.83;7.10;;;;;;;2.67;91.76;96412.44;6028028;23;20203;-71
2020/12/18 06:14:49;;;;;;;14.10;9.50;;;;;;;2.69;91.90;96420.13;6028299;23;20262;-70
2020/12/18 06:17:27;;;;;;;7.33;6.67;;;;;;;2.65;91.58;96416.06;6027478;23;20277;-71
2020/12/18 06:19:58;;;;;;;12.47;7.07;;;;;;;2.61;92.04;96418.09;6027529;23;20776;-71
2020/12/18 06:22:34;;;;;;;6.80;6.20;;;;;;;2.58;91.45;96420.94;6027946;23;20299;-71
2020/12/18 06:25:20;;;;;;;15.77;8.40;;;;;;;2.64;91.65;96422.22;6029682;23;20207;-70
2020/12/18 06:28:06;;;;;;;19.27;17.47;;;;;;;2.65;91.50;96413.47;6028881;23;20586;-70
2020/12/18 06:30:59;;;;;;;13.33;12.00;;;;;;;2.67;91.89;96409.00;6026511;23;20255;-70
2020/12/18 06:33:53;;;;;;;9.73;8.83;;;;;;;2.63;91.46;96404.94;6028882;23;20202;-71
2020/12/18 06:36:59;;;;;;;7.97;7.30;;;;;;;2.70;91.35;96412.19;6030111;23;20202;-70
2020/12/18 06:39:46;;;;;;;8.17;7.33;;;;;;;2.75;91.31;96409.25;6012859;23;20678;-71
2020/12/18 06:42:45;;;;;;;8.43;7.63;;;;;;;2.71;91.61;96413.00;6028814;23;20209;-71
2020/12/18 06:45:31;;;;;;;9.53;8.73;;;;;;;2.69;91.59;96414.91;6029608;23;20199;-71
2020/12/18 06:47:58;;;;;;;13.27;11.93;;;;;;;2.67;92.02;96409.00;6029098;23;20203;-70
2020/12/18 06:50:57;;;;;;;15.33;13.73;;;;;;;2.64;92.13;96406.59;5980804;23;20223;-70
2020/12/18 06:53:40;;;;;;;13.57;12.27;;;;;;;2.63;92.26;96415.38;6027551;23;20199;-70
2020/12/18 06:56:26;;;;;;;9.77;9.03;;;;;;;2.69;91.68;96414.91;6027987;23;20207;-70
2020/12/18 06:59:19;;;;;;;6.47;5.70;;;;;;;2.67;91.94;96417.66;6029236;23;20683;-70
2020/12/18 07:01:48;;;;;;;6.53;5.90;;;;;;;2.67;92.14;96427.25;6027123;23;20285;-70
2020/12/18 07:04:19;;;;;;;6.97;6.37;;;;;;;2.76;90.91;96421.31;6026206;23;20239;-71
2020/12/18 07:06:46;;;;;;;9.07;7.03;;;;;;;2.71;90.19;96423.44;6029944;23;20199;-70
2020/12/18 07:09:15;;;;;;;12.77;9.07;;;;;;;2.69;90.81;96422.72;6029888;23;20207;-70
2020/12/18 07:11:44;;;;;;;8.23;7.50;;;;;;;2.66;90.42;96412.56;6029547;23;20203;-70
2020/12/18 07:14:15;;;;;;;6.93;6.53;;;;;;;2.72;90.60;96409.47;6029549;23;20263;-71
2020/12/18 07:16:53;;;;;;;7.60;6.50;;;;;;;2.77;90.50;96405.56;6029269;23;20274;-71
2020/12/18 07:19:21;;;;;;;6.03;5.53;;;;;;;2.84;89.81;96403.31;6029415;23;20211;-70
2020/12/18 07:22:06;;;;;;;5.80;5.30;;;;;;;2.77;89.76;96407.34;6025996;23;20282;-71
2020/12/18 07:24:33;;;;;;;8.03;7.27;;;;;;;2.70;89.41;96406.16;6026575;23;20278;-71
2020/12/18 07:26:59;;;;;;;6.53;5.97;;;;;;;2.61;90.12;96404.25;6027367;23;20215;-71
2020/12/18 07:29:28;;;;;;;5.87;5.53;;;;;;;2.60;89.71;96406.03;6027777;23;20591;-70
2020/12/18 07:31:56;;;;;;;6.40;5.90;;;;;;;2.63;90.10;96390.13;6028825;23;20254;-71
2020/12/18 07:34:23;;;;;;;8.00;7.10;;;;;;;2.74;90.33;96389.31;6029167;23;20595;-71
2020/12/18 07:36:50;;;;;;;7.97;5.83;;;;;;;2.86;90.10;96398.81;6027908;23;20595;-71
2020/12/18 07:39:17;;;;;;;5.07;4.77;;;;;;;2.85;89.57;96394.56;6027626;23;20207;-70
2020/12/18 07:41:44;;;;;;;6.03;4.03;;;;;;;2.85;89.42;96399.78;6027277;23;20258;-70
2020/12/18 07:44:12;;;;;;;7.30;6.80;;;;;;;2.94;89.83;96396.44;6027163;23;20290;-70
2020/12/18 07:46:39;;;;;;;5.13;4.67;;;;;;;3.05;89.16;96399.06;6028669;23;20290;-70
2020/12/18 07:49:10;;;;;;;4.40;4.00;;;;;;;3.15;88.66;96396.56;6029588;23;20563;-70
2020/12/18 07:51:37;;;;;;;5.30;4.87;;;;;;;3.17;87.56;96401.63;6028940;23;20229;-70
2020/12/18 07:54:04;;;;;;;6.47;5.87;;;;;;;3.32;86.83;96392.63;6028735;23;20334;-70
2020/12/18 07:56:32;;;;;;;5.20;4.80;;;;;;;3.31;86.54;96391.78;6029183;23;20678;-70
2020/12/18 07:59:03;;;;;;;5.07;4.57;;;;;;;3.29;86.26;96392.84;6029484;23;20218;-70
2020/12/18 08:01:32;;;;;;;6.80;6.37;;;;;;;3.32;86.15;96401.28;6023760;23;20203;-70
2020/12/18 08:04:00;;;;;;;6.43;5.63;;;;;;;3.34;86.06;96390.72;6028919;23;20207;-70
2020/12/18 08:06:29;;;;;;;6.57;5.03;;;;;;;3.37;86.42;96391.28;6030035;23;20282;-70
2020/12/18 08:08:57;;;;;;;5.43;5.03;;;;;;;3.45;85.94;96393.28;6028873;23;20214;-70
2020/12/18 08:11:26;;;;;;;6.27;4.97;;;;;;;3.50;85.33;96390.34;6027091;23;20258;-72
2020/12/18 08:13:56;;;;;;;6.30;5.70;;;;;;;3.54;85.07;96387.34;6027128;23;20195;-70
2020/12/18 08:16:24;;;;;;;6.47;5.97;;;;;;;3.59;84.82;96390.44;6027146;23;20206;-71
2020/12/18 08:18:53;;;;;;;6.70;4.83;;;;;;;3.66;83.83;96396.81;6028558;23;20235;-70
2020/12/18 08:21:21;;;;;;;3.73;3.53;;;;;;;3.66;83.01;96391.59;6028096;23;20255;-70
2020/12/18 08:23:55;;;;;;;4.70;4.27;;;;;;;3.61;83.88;96388.50;6028726;23;20206;-70
2020/12/18 08:26:23;;;;;;;6.37;5.87;;;;;;;3.57;83.19;96396.72;6029167;23;20747;-70
2020/12/18 08:28:52;;;;;;;6.13;5.67;;;;;;;3.57;83.98;96394.13;6028935;23;20267;-70
2020/12/18 08:31:23;;;;;;;5.27;4.87;;;;;;;3.63;83.60;96401.44;6027288;23;20195;-70
2020/12/18 08:33:54;;;;;;;6.37;5.97;;;;;;;3.71;83.63;96402.47;6026693;23;21021;-71
2020/12/18 08:36:23;;;;;;;19.33;17.37;;;;;;;3.89;83.25;96412.41;6029553;23;20262;-70
2020/12/18 08:39:03;;;;;;;9.80;8.80;;;;;;;4.93;80.67;96403.72;6029121;23;20216;-70
2020/12/18 08:41:42;;;;;;;7.47;6.77;;;;;;;7.13;71.48;96401.38;6027703;23;20209;-70
2020/12/18 08:44:10;;;;;;;3.87;3.60;;;;;;;8.91;63.63;96395.38;6028345;23;20217;-70
2020/12/18 08:46:38;;;;;;;3.90;3.60;;;;;;;10.27;58.52;96394.38;6029619;23;20209;-71
2020/12/18 08:49:14;;;;;;;3.17;2.63;;;;;;;11.56;54.26;96389.88;6028225;23;20209;-71
2020/12/18 08:51:41;;;;;;;4.03;3.77;;;;;;;12.49;50.48;96383.69;6026648;23;20215;-70
2020/12/18 08:54:27;;;;;;;3.20;3.00;;;;;;;13.07;48.52;96382.16;6029392;23;20699;-71
2020/12/18 08:57:12;;;;;;;2.73;2.53;;;;;;;13.64;47.12;96394.84;6028496;23;20206;-70
2020/12/18 08:59:40;;;;;;;2.10;2.00;;;;;;;14.14;46.01;96374.56;6027821;23;20228;-70
2020/12/18 09:02:15;;;;;;;2.87;2.63;;;;;;;14.64;44.01;96380.81;6029561;23;20757;-71
2020/12/18 09:04:42;;;;;;;3.57;3.27;;;;;;;14.95;42.74;96377.78;6029243;23;20231;-71
2020/12/18 09:07:09;;;;;;;2.77;2.57;;;;;;;15.03;42.48;96381.13;6031546;23;20221;-70
2020/12/18 09:09:37;;;;;;;2.60;2.50;;;;;;;15.22;41.98;96368.16;6029777;23;20835;-71
2020/12/18 09:12:16;;;;;;;3.27;2.97;;;;;;;15.36;40.60;96370.69;6031121;23;20215;-70
2020/12/18 09:14:43;;;;;;;3.57;3.17;;;;;;;14.86;41.44;96374.44;6031023;23;20718;-71
2020/12/18 09:17:10;;;;;;;3.33;3.13;;;;;;;14.80;41.99;96378.69;6028983;23;20977;-71
2020/12/18 09:19:45;;;;;;;5.80;3.00;;;;;;;15.17;41.74;96382.00;6029043;23;20531;-71
2020/12/18 09:22:12;;;;;;;4.20;3.87;;;;;;;15.72;40.11;96379.47;6030899;23;20210;-71
2020/12/18 09:24:41;;;;;;;3.67;3.37;;;;;;;15.31;40.68;96381.09;6028546;23;20292;-71
2020/12/18 09:27:09;;;;;;;3.70;3.50;;;;;;;15.02;41.78;96384.78;6028820;23;20211;-71
2020/12/18 09:29:36;;;;;;;3.50;3.03;;;;;;;15.46;41.09;96380.97;6024139;23;20239;-71
2020/12/18 09:32:04;;;;;;;4.67;4.37;;;;;;;15.91;39.81;96376.91;6031259;23;20857;-71
2020/12/18 09:34:31;;;;;;;3.93;3.63;;;;;;;16.34;38.13;96373.94;6030465;23;20207;-71
2020/12/18 09:36:59;;;;;;;3.20;3.00;;;;;;;16.66;38.01;96375.03;6031038;23;20219;-71
2020/12/18 09:39:26;;;;;;;3.43;3.23;;;;;;;17.12;36.75;96376.88;6028381;23;20214;-71
2020/12/18 09:41:53;;;;;;;2.67;2.47;;;;;;;17.35;35.04;96363.91;6028399;23;20202;-70
2020/12/18 09:44:20;;;;;;;2.13;2.03;;;;;;;17.47;34.46;96363.28;6029532;23;20213;-72
2020/12/18 09:46:47;;;;;;;1.97;1.60;;;;;;;17.62;34.87;96366.50;6030862;23;20207;-71
2020/12/18 09:49:14;;;;;;;2.43;1.63;;;;;;;18.12;33.10;96362.22;6030385;23;20211;-71
2020/12/18 09:51:45;;;;;;;2.60;1.23;;;;;;;18.07;32.32;96353.19;6029471;23;20646;-71
2020/12/18 09:54:13;;;;;;;2.87;1.77;;;;;;;18.29;32.53;96361.72;6030779;23;20219;-71
2020/12/18 09:56:39;;;;;;;3.40;3.07;;;;;;;18.93;30.88;96348.09;6028103;23;20289;-71
2020/12/18 09:59:07;;;;;;;2.10;2.00;;;;;;;18.83;30.74;96345.09;6029710;23;20211;-71
2020/12/18 10:01:34;;;;;;;2.60;2.40;;;;;;;18.95;30.55;96347.88;6029416;23;20214;-71
2020/12/18 10:04:01;;;;;;;2.93;2.73;;;;;;;18.93;31.07;96341.94;6030548;23;20278;-71
2020/12/18 10:06:28;;;;;;;3.17;2.97;;;;;;;18.99;31.30;96335.69;6031272;23;20209;-71
2020/12/18 10:08:55;;;;;;;3.40;3.10;;;;;;;19.50;31.83;96334.56;6029962;23;20199;-72
2020/12/18 10:11:27;;;;;;;2.47;2.27;;;;;;;20.27;30.95;96337.53;6027791;23;20211;-71
2020/12/18 10:13:54;;;;;;;2.57;2.47;;;;;;;20.76;29.22;96324.84;6029650;23;20201;-72
2020/12/18 10:16:22;;;;;;;1.70;1.60;;;;;;;20.95;28.34;96329.06;6029976;23;20226;-72
2020/12/18 10:18:48;;;;;;;5.53;3.30;;;;;;;21.08;28.13;96333.38;6030647;23;20275;-71
2020/12/18 10:21:15;;;;;;;2.33;2.13;;;;;;;21.04;28.43;96325.00;6030024;23;20589;-71
2020/12/18 10:23:42;;;;;;;5.83;3.10;;;;;;;21.09;28.51;96322.41;6030333;23;20203;-71
2020/12/18 10:26:09;;;;;;;3.07;2.83;;;;;;;21.35;28.82;96317.66;6029204;23;20290;-71
2020/12/18 10:28:38;;;;;;;3.00;2.70;;;;;;;21.44;27.56;96318.91;6030909;23;20207;-72
2020/12/18 10:31:05;;;;;;;2.20;2.00;;;;;;;21.53;28.56;96314.81;6027992;23;20202;-72
2020/12/18 10:33:36;;;;;;;3.23;3.00;;;;;;;21.76;26.82;96320.16;6028649;23;20203;-72
2020/12/18 10:36:03;;;;;;;2.70;2.50;;;;;;;21.67;27.42;96310.84;6028956;23;20215;-71
2020/12/18 10:38:29;;;;;;;2.97;2.17;;;;;;;22.05;26.92;96309.41;5998243;23;20226;-72
2020/12/18 10:40:56;;;;;;;2.67;2.50;;;;;;;22.36;26.48;96303.56;6043141;23;20262;-71
2020/12/18 10:43:23;;;;;;;2.00;1.90;;;;;;;22.31;26.28;96303.47;6030153;23;20214;-72
2020/12/18 10:45:50;;;;;;;3.73;3.53;;;;;;;22.51;26.70;96304.88;6030106;23;20207;-71
2020/12/18 10:48:17;;;;;;;2.33;2.13;;;;;;;22.55;26.77;96296.06;6029004;23;20235;-72
2020/12/18 10:50:45;;;;;;;2.13;2.03;;;;;;;22.51;27.03;96294.13;6027606;23;20667;-72
2020/12/18 10:53:12;;;;;;;2.73;2.53;;;;;;;22.75;27.38;96289.38;6030443;23;20266;-72
2020/12/18 10:55:39;;;;;;;4.47;2.67;;;;;;;23.17;27.12;96282.53;6030282;23;20203;-72
2020/12/18 10:58:06;;;;;;;1.83;1.73;;;;;;;23.46;26.55;96285.06;6029788;23;22985;-71
2020/12/18 11:00:32;;;;;;;2.83;2.63;;;;;;;23.55;25.91;96284.38;6029308;23;20206;-72
2020/12/18 11:02:59;;;;;;;1.93;1.77;;;;;;;23.49;25.57;96274.59;6029327;23;20199;-72
2020/12/18 11:05:28;;;;;;;2.63;2.23;;;;;;;23.46;25.09;96264.31;6030141;23;20211;-72
2020/12/18 11:07:55;;;;;;;2.13;2.03;;;;;;;23.49;25.65;96273.78;6028694;23;20211;-72
2020/12/18 11:10:22;;;;;;;3.43;3.13;;;;;;;23.58;25.14;96271.47;6029172;23;20203;-72
2020/12/18 11:12:49;;;;;;;6.87;3.80;;;;;;;23.26;25.24;96261.38;6029011;23;20195;-72
2020/12/18 11:15:16;;;;;;;2.10;2.00;;;;;;;23.25;25.89;96262.44;6025496;23;20203;-71
2020/12/18 11:17:43;;;;;;;2.43;2.33;;;;;;;23.19;25.98;96260.75;6030171;23;20214;-72
2020/12/18 11:20:11;;;;;;;3.93;2.53;;;;;;;23.22;25.98;96258.34;6028955;23;20283;-72
2020/12/18 11:22:37;;;;;;;2.87;2.73;;;;;;;23.25;26.25;96251.66;6027963;23;20207;-72
2020/12/18 11:25:05;;;;;;;3.03;2.77;;;;;;;23.06;26.22;96258.41;6027694;23;20207;-72
2020/12/18 11:27:32;;;;;;;2.90;2.63;;;;;;;23.03;26.62;96253.50;6029973;23;20211;-72
2020/12/18 11:29:59;;;;;;;3.17;2.40;;;;;;;23.07;26.20;96258.16;6029250;23;20206;-72
2020/12/18 11:32:25;;;;;;;2.67;2.47;;;;;;;23.20;25.96;96249.72;6030116;23;20262;-72
2020/12/18 11:34:52;;;;;;;2.27;2.07;;;;;;;23.15;26.46;96246.16;6029208;23;20833;-72
2020/12/18 11:37:19;;;;;;;2.13;2.03;;;;;;;23.35;26.24;96246.41;6029009;23;20278;-71
2020/12/18 11:39:46;;;;;;;2.47;2.27;;;;;;;23.20;26.47;96240.81;6027406;23;20211;-72
2020/12/18 11:42:14;;;;;;;2.17;2.07;;;;;;;22.84;27.49;96240.31;6029586;23;20278;-72
2020/12/18 11:44:41;;;;;;;1.87;1.77;;;;;;;22.47;27.44;96252.63;6028550;23;20218;-72
2020/12/18 11:47:08;;;;;;;1.97;1.87;;;;;;;22.00;28.39;96239.44;6030044;23;23094;-72
2020/12/18 11:49:34;;;;;;;1.93;1.83;;;;;;;21.48;27.90;96243.00;6029489;23;20259;-72
2020/12/18 11:52:04;;;;;;;2.93;2.73;;;;;;;20.72;29.87;96239.47;6030487;23;20239;-71
2020/12/18 11:54:30;;;;;;;2.77;1.50;;;;;;;20.02;31.25;96252.72;6026898;23;20218;-71
2020/12/18 11:56:57;;;;;;;2.77;1.60;;;;;;;19.45;33.38;96236.19;6029939;23;20255;-72
2020/12/18 11:59:25;;;;;;;2.23;2.13;;;;;;;19.22;34.00;96230.72;6027774;23;20203;-72
2020/12/18 12:01:52;;;;;;;2.70;2.50;;;;;;;19.17;35.23;96238.59;6028983;23;20231;-72
2020/12/18 12:04:19;;;;;;;2.73;2.60;;;;;;;19.59;33.04;96239.56;6030125;23;20741;-72